createdAt,value
2023-01-13T00:00:09.219Z,100178.59
2023-01-13T00:02:43.235Z,100177.72
2023-01-13T00:05:16.355Z,100182.25
2023-01-13T00:07:49.715Z,100173.25
2023-01-13T00:10:22.344Z,100179.03
2023-01-13T00:12:55.092Z,100185.00
2023-01-13T00:15:31.210Z,100189.50
2023-01-13T00:18:05.811Z,100178.22
2023-01-13T00:20:40.650Z,100173.75
2023-01-13T00:23:13.407Z,100174.75
2023-01-13T00:25:48.524Z,100166.59
2023-01-13T00:28:28.932Z,100156.44
2023-01-13T00:31:07.300Z,100150.34
2023-01-13T00:33:41.347Z,100155.81
2023-01-13T00:36:16.299Z,100151.56
2023-01-13T00:38:49.271Z,100139.97
2023-01-13T00:41:25.271Z,100130.38
2023-01-13T00:43:59.727Z,100126.06
2023-01-13T00:46:32.897Z,100133.22
2023-01-13T00:49:09.091Z,100133.28
2023-01-13T00:51:45.710Z,100127.03
2023-01-13T00:54:18.872Z,100128.91
2023-01-13T00:56:51.455Z,100130.50
2023-01-13T00:59:26.703Z,100128.22
2023-01-13T01:02:01.609Z,100129.78
2023-01-13T01:04:36.389Z,100129.94
2023-01-13T01:07:08.998Z,100136.75
2023-01-13T01:09:44.789Z,100137.28
2023-01-13T01:12:18.139Z,100141.25
2023-01-13T01:14:52.777Z,100141.13
2023-01-13T01:17:30.196Z,100144.56
2023-01-13T01:20:10.504Z,100147.09
2023-01-13T01:22:46.030Z,100146.72
2023-01-13T01:25:35.356Z,100142.22
2023-01-13T01:28:08.838Z,100138.53
2023-01-13T01:30:41.488Z,100146.16
2023-01-13T01:33:18.281Z,100142.16
2023-01-13T01:36:00.592Z,100141.59
2023-01-13T01:38:35.795Z,100131.22
2023-01-13T01:41:23.860Z,100150.78
2023-01-13T01:44:43.636Z,100151.31
2023-01-13T01:47:19.409Z,100147.84
2023-01-13T01:49:52.811Z,100149.25
2023-01-13T01:52:40.215Z,100140.50
2023-01-13T01:55:22.467Z,100147.38
2023-01-13T01:58:09.396Z,100144.75
2023-01-13T02:00:42.158Z,100158.00
2023-01-13T02:03:17.321Z,100161.91
2023-01-13T02:05:51.304Z,100147.81
2023-01-13T02:08:25.244Z,100145.03
2023-01-13T02:10:58.242Z,100144.41
2023-01-13T02:13:30.974Z,100142.84
2023-01-13T02:16:23.291Z,100137.56
2023-01-13T02:19:24.669Z,100138.34
2023-01-13T02:22:35.372Z,100139.16
2023-01-13T02:25:32.894Z,100141.03
2023-01-13T02:28:25.668Z,100148.78
2023-01-13T02:31:29.200Z,100152.66
2023-01-13T02:34:23.073Z,100146.59
2023-01-13T02:37:28.595Z,100161.66
2023-01-13T02:40:08.423Z,100144.16
2023-01-13T02:43:13.661Z,100145.50
2023-01-13T02:45:57.805Z,100136.78
2023-01-13T02:48:32.417Z,100130.56
2023-01-13T02:51:13.803Z,100127.81
2023-01-13T02:54:25.291Z,100128.84
2023-01-13T02:57:01.100Z,100122.34
2023-01-13T02:59:36.857Z,100129.59
2023-01-13T03:02:16.375Z,100108.25
2023-01-13T03:04:55.182Z,100108.25
2023-01-13T03:08:15.743Z,100117.00
2023-01-13T03:11:05.593Z,100110.94
2023-01-13T03:14:15.182Z,100108.72
2023-01-13T03:17:13.041Z,100117.44
2023-01-13T03:20:17.132Z,100107.72
2023-01-13T03:23:22.138Z,100097.19
2023-01-13T03:26:08.354Z,100093.69
2023-01-13T03:28:52.412Z,100093.44
2023-01-13T03:31:34.300Z,100106.16
2023-01-13T03:34:16.025Z,100108.16
2023-01-13T03:36:55.436Z,100103.81
2023-01-13T03:39:36.442Z,100108.25
2023-01-13T03:42:17.633Z,100096.66
2023-01-13T03:45:05.140Z,100098.38
2023-01-13T03:47:57.348Z,100108.13
2023-01-13T03:50:41.677Z,100110.91
2023-01-13T03:53:23.118Z,100101.47
2023-01-13T03:56:09.848Z,100094.50
2023-01-13T03:58:49.281Z,100099.81
2023-01-13T04:01:35.313Z,100090.22
2023-01-13T04:04:18.190Z,100100.19
2023-01-13T04:07:26.983Z,100094.75
2023-01-13T04:10:05.237Z,100106.44
2023-01-13T04:13:06.837Z,100113.44
2023-01-13T04:15:44.065Z,100107.72
2023-01-13T04:18:22.795Z,100115.03
2023-01-13T04:21:00.310Z,100114.97
2023-01-13T04:23:33.321Z,100129.97
2023-01-13T04:26:06.053Z,100128.47
2023-01-13T04:28:40.736Z,100134.63
2023-01-13T04:31:15.979Z,100132.53
2023-01-13T04:33:48.697Z,100128.22
2023-01-13T04:36:25.133Z,100125.28
2023-01-13T04:38:57.757Z,100133.22
2023-01-13T04:41:53.300Z,100122.50
2023-01-13T04:44:27.267Z,100126.06
2023-01-13T04:46:59.960Z,100135.75
2023-01-13T04:49:33.368Z,100138.41
2023-01-13T06:39:27.506Z,100186.44
2023-01-13T06:42:18.537Z,100185.38
2023-01-13T06:44:51.282Z,100189.56
2023-01-13T06:47:23.945Z,100202.72
2023-01-13T06:49:56.531Z,100187.66
2023-01-13T06:52:31.733Z,100183.00
2023-01-13T06:55:04.943Z,100182.13
2023-01-13T06:57:56.146Z,100184.53
2023-01-13T07:00:28.890Z,100183.69
2023-01-13T07:03:08.944Z,100189.72
2023-01-13T07:05:50.450Z,100190.72
2023-01-13T07:08:24.493Z,100189.88
2023-01-13T07:10:57.131Z,100199.31
2023-01-13T07:13:48.500Z,100197.72
2023-01-13T07:16:21.153Z,100201.94
2023-01-13T07:18:54.052Z,100189.03
2023-01-13T07:21:26.635Z,100197.72
2023-01-13T07:23:59.182Z,100207.66
2023-01-13T07:26:31.812Z,100209.38
2023-01-13T07:29:04.282Z,100208.50
2023-01-13T07:31:37.419Z,100202.50
2023-01-13T07:34:10.132Z,100193.78
2023-01-13T07:36:42.770Z,100192.13
2023-01-13T07:39:15.441Z,100203.38
2023-01-13T07:42:06.790Z,100214.75
2023-01-13T07:44:39.440Z,100212.25
2023-01-13T07:47:12.183Z,100221.91
2023-01-13T07:49:44.727Z,100213.84
2023-01-13T07:52:17.193Z,100220.22
2023-01-13T07:54:50.241Z,100227.13
2023-01-13T07:57:22.830Z,100238.66
2023-01-13T07:59:55.583Z,100233.19
2023-01-13T08:02:28.213Z,100249.13
2023-01-13T08:05:00.910Z,100239.63
2023-01-13T08:07:33.474Z,100244.75
2023-01-13T08:10:07.349Z,100242.25
2023-01-13T08:12:58.362Z,100233.31
2023-01-13T08:15:34.666Z,100231.69
2023-01-13T08:18:07.185Z,100233.38
2023-01-13T08:20:39.858Z,100241.34
2023-01-13T08:23:12.560Z,100238.78
2023-01-13T08:25:45.702Z,100233.50
2023-01-13T08:28:18.518Z,100240.41
2023-01-13T08:30:52.996Z,100226.53
2023-01-13T08:33:25.576Z,100240.34
2023-01-13T08:35:58.956Z,100238.59
2023-01-13T08:38:32.772Z,100231.59
2023-01-13T08:41:15.016Z,100244.69
2023-01-13T08:43:47.573Z,100237.66
2023-01-13T08:46:20.167Z,100244.38
2023-01-13T08:48:52.812Z,100244.28
2023-01-13T08:51:25.344Z,100251.91
2023-01-13T08:53:57.869Z,100237.63
2023-01-13T08:56:34.150Z,100240.97
2023-01-13T08:59:14.840Z,100255.03
2023-01-13T09:01:47.473Z,100267.09
2023-01-13T09:04:23.876Z,100256.59
2023-01-13T09:06:56.669Z,100253.88
2023-01-13T09:09:29.181Z,100263.81
2023-01-13T09:12:20.768Z,100259.19
2023-01-13T09:14:53.224Z,100256.50
2023-01-13T09:17:25.882Z,100256.38
2023-01-13T09:19:58.474Z,100255.22
2023-01-13T09:22:31.250Z,100263.25
2023-01-13T09:25:04.604Z,100288.72
2023-01-13T09:27:37.110Z,100277.88
2023-01-13T09:30:10.730Z,100291.84
2023-01-13T09:32:43.281Z,100301.38
2023-01-13T09:35:17.381Z,100296.84
2023-01-13T09:37:49.968Z,100305.50
2023-01-13T09:40:22.825Z,100301.97
2023-01-13T09:43:25.323Z,100312.69
2023-01-13T09:46:36.190Z,100309.03
2023-01-13T09:49:23.874Z,100320.38
2023-01-13T09:52:20.911Z,100313.59
2023-01-13T09:55:06.249Z,100312.59
2023-01-13T09:57:39.902Z,100311.84
2023-01-13T10:00:23.083Z,100318.09
2023-01-13T10:03:30.341Z,100324.88
2023-01-13T10:06:21.387Z,100317.81
2023-01-13T10:08:54.190Z,100320.38
2023-01-13T10:11:55.654Z,100320.28
2023-01-13T10:14:42.932Z,100321.13
2023-01-13T10:17:42.955Z,100318.78
2023-01-13T10:20:29.091Z,100322.63
2023-01-13T10:23:40.615Z,100340.34
2023-01-13T10:26:44.615Z,100335.75
2023-01-13T10:29:25.259Z,100330.81
2023-01-13T10:32:00.732Z,100339.28
2023-01-13T10:34:57.380Z,100359.69
2023-01-13T10:37:29.891Z,100357.59
2023-01-13T10:40:04.158Z,100354.13
2023-01-13T10:42:36.901Z,100372.09
2023-01-13T10:45:25.173Z,100393.38
2023-01-13T10:48:15.484Z,100386.75
2023-01-13T10:50:49.068Z,100379.75
2023-01-13T10:53:26.259Z,100389.63
2023-01-13T10:56:03.368Z,100379.81
2023-01-13T10:58:35.954Z,100387.84
2023-01-13T11:01:25.680Z,100382.53
2023-01-13T11:03:59.623Z,100385.88
2023-01-13T11:06:34.095Z,100389.47
2023-01-13T11:09:20.928Z,100374.19
2023-01-13T11:11:57.663Z,100374.44
2023-01-13T11:14:43.904Z,100384.69
2023-01-13T11:17:34.628Z,100382.81
2023-01-13T11:20:33.614Z,100381.31
2023-01-13T11:23:21.728Z,100399.47
2023-01-13T11:26:33.477Z,100391.09
2023-01-13T11:29:20.595Z,100391.06
2023-01-13T11:32:07.488Z,100396.97
2023-01-13T11:34:45.325Z,100397.91
2023-01-13T11:37:27.820Z,100398.50
2023-01-13T11:40:38.866Z,100398.66
2023-01-13T11:43:47.076Z,100416.34
2023-01-13T11:46:27.126Z,100414.22
2023-01-13T11:49:00.954Z,100419.72
2023-01-13T11:51:43.341Z,100411.75
2023-01-13T11:54:40.295Z,100406.69
2023-01-13T11:58:11.220Z,100419.97
2023-01-13T12:01:15.581Z,100429.16
2023-01-13T12:04:29.279Z,100419.34
2023-01-13T12:07:52.978Z,100434.50
2023-01-13T12:11:13.927Z,100432.88
2023-01-13T12:15:03.415Z,100445.78
2023-01-13T12:17:49.182Z,100433.44
2023-01-13T12:20:41.959Z,100432.47
2023-01-13T12:23:38.973Z,100442.19
2023-01-13T12:26:18.345Z,100445.72
2023-01-13T12:29:06.241Z,100428.94
2023-01-13T12:31:42.047Z,100454.38
2023-01-13T12:34:30.068Z,100452.59
2023-01-13T12:37:16.305Z,100460.66
2023-01-13T12:39:52.570Z,100453.34
2023-01-13T12:42:58.801Z,100465.06
2023-01-13T12:45:34.068Z,100464.31
2023-01-13T12:48:06.771Z,100470.38
2023-01-13T12:50:41.119Z,100478.22
2023-01-13T12:53:36.402Z,100481.75
2023-01-13T12:56:40.732Z,100475.41
2023-01-13T12:59:19.828Z,100480.75
2023-01-13T13:02:12.871Z,100496.59
2023-01-13T13:04:49.985Z,100493.66
2023-01-13T13:08:07.291Z,100494.09
2023-01-13T13:11:06.507Z,100489.81
2023-01-13T13:13:49.081Z,100511.00
2023-01-13T13:16:29.340Z,100503.81
2023-01-13T13:19:20.225Z,100508.31
2023-01-13T13:22:14.584Z,100514.38
2023-01-13T13:24:56.358Z,100510.78
2023-01-13T13:27:31.980Z,100523.84
2023-01-13T13:30:33.952Z,100531.72
2023-01-13T13:33:39.164Z,100529.00
2023-01-13T13:36:44.273Z,100531.34
2023-01-13T13:40:02.729Z,100548.94
2023-01-13T13:43:02.137Z,100561.44
2023-01-13T13:46:13.550Z,100546.41
2023-01-13T13:48:55.298Z,100559.72
2023-01-13T13:51:40.190Z,100558.91
2023-01-13T13:54:22.832Z,100566.91
2023-01-13T13:56:55.625Z,100580.94
2023-01-13T13:59:33.594Z,100576.88
2023-01-13T14:02:47.276Z,100591.63
2023-01-13T14:05:28.469Z,100593.56
2023-01-13T14:08:14.785Z,100601.41
2023-01-13T14:10:47.875Z,100601.16
2023-01-13T14:13:31.741Z,100590.94
2023-01-13T14:16:10.548Z,100610.41
2023-01-13T14:18:47.955Z,100607.72
2023-01-13T14:21:28.796Z,100609.56
2023-01-13T14:24:17.572Z,100633.34
2023-01-13T14:26:52.058Z,100633.31
2023-01-13T14:29:25.409Z,100628.00
2023-01-13T14:31:58.088Z,100642.97
2023-01-13T14:34:33.291Z,100635.88
2023-01-13T14:37:38.482Z,100639.38
2023-01-13T14:40:32.997Z,100653.44
2023-01-13T14:43:16.066Z,100650.91
2023-01-13T14:45:59.809Z,100654.47
2023-01-13T14:48:37.851Z,100639.31
2023-01-13T14:51:20.272Z,100647.34
2023-01-13T14:53:53.906Z,100659.72
2023-01-13T14:56:43.952Z,100673.97
2023-01-13T14:59:40.763Z,100682.50
2023-01-13T15:02:25.529Z,100686.97
2023-01-13T15:05:16.883Z,100692.31
2023-01-13T15:07:56.582Z,100696.72
2023-01-13T15:10:33.972Z,100702.72
2023-01-13T15:13:07.389Z,100718.69
2023-01-13T15:15:39.973Z,100722.09
2023-01-13T15:18:17.154Z,100729.31
2023-01-13T15:20:52.525Z,100742.53
2023-01-13T15:23:25.055Z,100746.91
2023-01-13T15:26:00.608Z,100751.19
2023-01-13T15:28:33.166Z,100750.25
2023-01-13T15:31:05.929Z,100751.13
2023-01-13T15:33:38.843Z,100759.09
2023-01-13T15:36:25.207Z,100759.25
2023-01-13T15:38:59.634Z,100754.00
2023-01-13T15:41:50.674Z,100754.75
2023-01-13T15:44:41.899Z,100756.53
2023-01-13T15:47:14.832Z,100760.06
2023-01-13T15:49:47.495Z,100776.94
2023-01-13T15:52:26.548Z,100778.44
2023-01-13T15:54:59.036Z,100785.41
2023-01-13T15:57:39.039Z,100786.44
2023-01-13T16:00:22.418Z,100791.72
2023-01-13T16:02:55.112Z,100794.34
2023-01-13T16:05:27.756Z,100793.38
2023-01-13T16:08:00.523Z,100794.34
2023-01-13T16:10:33.047Z,100803.91
2023-01-13T16:13:05.579Z,100797.69
2023-01-13T16:15:46.870Z,100808.28
2023-01-13T16:18:24.279Z,100802.13
2023-01-13T16:20:56.853Z,100816.22
2023-01-13T16:23:29.324Z,100818.84
2023-01-13T16:26:14.663Z,100829.41
2023-01-13T16:28:48.184Z,100835.44
2023-01-13T16:31:33.568Z,100837.25
2023-01-13T16:34:06.484Z,100850.41
2023-01-13T16:36:39.130Z,100832.69
2023-01-13T16:39:21.804Z,100838.88
2023-01-13T16:41:54.302Z,100837.25
2023-01-13T16:44:26.896Z,100845.22
2023-01-13T16:46:59.372Z,100852.25
2023-01-13T16:49:32.016Z,100853.91
2023-01-13T16:52:04.653Z,100861.03
2023-01-13T16:54:37.245Z,100860.00
2023-01-13T16:57:13.790Z,100859.34
2023-01-13T16:59:46.438Z,100862.72
2023-01-13T17:02:20.908Z,100868.91
2023-01-13T17:04:53.655Z,100876.00
2023-01-13T17:07:26.237Z,100866.25
2023-01-13T17:09:58.821Z,100875.22
2023-01-13T17:12:31.446Z,100895.44
2023-01-13T17:15:04.450Z,100884.06
2023-01-13T17:17:37.551Z,100883.31
2023-01-13T17:20:14.114Z,100888.69
2023-01-13T17:22:49.764Z,100894.91
2023-01-13T17:25:27.379Z,100888.84
2023-01-13T17:27:59.945Z,100897.63
2023-01-13T17:30:32.687Z,100905.59
2023-01-13T17:33:05.563Z,100912.75
2023-01-13T17:35:39.367Z,100916.28
2023-01-13T17:38:11.865Z,100920.78
2023-01-13T17:40:44.438Z,100918.09
2023-01-13T17:43:16.896Z,100919.00
2023-01-13T17:45:49.713Z,100930.41
2023-01-13T17:48:22.266Z,100933.94
2023-01-13T17:50:54.802Z,100938.28
2023-01-13T17:53:30.102Z,100943.66
2023-01-13T17:56:03.250Z,100943.66
2023-01-13T17:58:37.598Z,100941.06
2023-01-13T18:01:17.551Z,100955.97
2023-01-13T18:03:50.434Z,100949.81
2023-01-13T18:06:24.323Z,100955.97
2023-01-13T18:08:59.935Z,100953.31
2023-01-13T18:11:32.543Z,100957.78
2023-01-13T18:14:05.133Z,100958.59
2023-01-13T18:16:38.783Z,100949.78
2023-01-13T18:19:30.529Z,100944.38
2023-01-13T18:22:32.634Z,100955.81
2023-01-13T18:25:24.764Z,100961.94
2023-01-13T18:27:59.788Z,100964.53
2023-01-13T18:30:32.400Z,100966.28
2023-01-13T18:33:04.936Z,100974.22
2023-01-13T18:35:39.618Z,100968.13
2023-01-13T18:38:25.773Z,100978.66
2023-01-13T18:40:58.369Z,100977.69
2023-01-13T18:43:33.375Z,100986.59
2023-01-13T18:46:05.895Z,100977.81
2023-01-13T18:48:38.449Z,100994.59
2023-01-13T18:51:10.985Z,101006.81
2023-01-13T18:53:43.582Z,101005.91
2023-01-13T18:56:16.154Z,101009.28
2023-01-13T18:58:52.090Z,101024.25
2023-01-13T19:01:27.487Z,101032.44
2023-01-13T19:04:02.957Z,101030.78
2023-01-13T19:06:36.495Z,101022.13
2023-01-13T19:09:11.040Z,101036.22
2023-01-13T19:11:46.440Z,101025.75
2023-01-13T19:14:37.663Z,101030.16
2023-01-13T19:17:16.175Z,101026.72
2023-01-13T19:19:57.370Z,101039.94
2023-01-13T19:22:35.445Z,101048.75
2023-01-13T19:25:08.329Z,101044.38
2023-01-13T19:27:40.945Z,101036.44
2023-01-13T19:30:14.374Z,101043.50
2023-01-13T19:32:46.931Z,101054.94
2023-01-13T19:35:20.023Z,101048.75
2023-01-13T19:37:53.927Z,101050.50
2023-01-13T19:40:27.012Z,101055.75
2023-01-13T19:43:18.423Z,101070.69
2023-01-13T19:45:51.401Z,101064.53
2023-01-13T19:48:24.089Z,101065.41
2023-01-13T19:50:58.572Z,101070.69
2023-01-13T19:53:32.100Z,101063.63
2023-01-13T19:56:05.156Z,101058.41
2023-01-13T19:58:37.807Z,101063.66
2023-01-13T20:01:11.691Z,101067.16
2023-01-13T20:03:45.885Z,101065.41
2023-01-13T20:06:18.531Z,101073.31
2023-01-13T20:08:51.033Z,101090.00
2023-01-13T20:11:25.064Z,101098.72
2023-01-13T20:14:01.490Z,101092.56
2023-01-13T20:16:34.125Z,101089.03
2023-01-13T20:19:06.749Z,101084.63
2023-01-13T20:21:39.836Z,101087.25
2023-01-13T20:24:17.477Z,101090.75
2023-01-13T20:26:50.144Z,101088.13
2023-01-13T20:29:23.235Z,101099.56
2023-01-13T20:31:55.973Z,101088.19
2023-01-13T20:34:28.626Z,101100.50
2023-01-13T20:37:01.322Z,101100.50
2023-01-13T20:39:35.909Z,101115.44
2023-01-13T20:42:28.530Z,101113.66
2023-01-13T20:45:01.497Z,101113.63
2023-01-13T20:47:34.161Z,101096.97
2023-01-13T20:50:07.427Z,101110.13
2023-01-13T20:52:40.084Z,101110.06
2023-01-13T20:55:13.403Z,101108.28
2023-01-13T20:57:48.845Z,101125.88
2023-01-13T21:00:21.956Z,101125.03
2023-01-13T21:02:54.489Z,101112.72
2023-01-13T21:05:28.474Z,101125.91
2023-01-13T21:08:01.101Z,101125.06
2023-01-13T21:10:33.757Z,101130.34
2023-01-13T21:13:24.910Z,101135.59
2023-01-13T21:15:57.504Z,101140.00
2023-01-13T21:19:05.412Z,101154.94
2023-01-13T21:21:38.134Z,101159.31
2023-01-13T21:24:10.657Z,101163.72
2023-01-13T21:26:43.343Z,101167.22
2023-01-13T21:29:15.880Z,101166.34
2023-01-13T21:31:48.821Z,101179.53
2023-01-13T21:34:21.394Z,101174.28
2023-01-13T21:36:53.922Z,101176.91
2023-01-13T21:39:26.627Z,101173.41
2023-01-13T21:42:17.539Z,101181.34
2023-01-13T21:45:08.743Z,101181.34
2023-01-13T21:47:50.495Z,101186.59
2023-01-13T21:50:28.140Z,101186.59
2023-01-13T21:53:00.732Z,101189.25
2023-01-13T21:55:35.682Z,101183.97
2023-01-13T21:58:14.273Z,101181.34
2023-01-13T22:00:49.248Z,101181.31
2023-01-13T22:03:22.188Z,101181.34
2023-01-13T22:05:55.784Z,101187.50
2023-01-13T22:08:28.388Z,101196.25
2023-01-13T22:11:03.011Z,101198.00
2023-01-13T22:13:54.657Z,101203.28
2023-01-13T22:16:27.285Z,101206.81
2023-01-13T22:18:59.815Z,101220.84
2023-01-13T22:21:32.798Z,101220.84
2023-01-13T22:24:05.823Z,101212.06
2023-01-13T22:26:38.536Z,101214.69
2023-01-13T22:29:11.131Z,101226.13
2023-01-13T22:31:43.882Z,101218.19
2023-01-13T22:34:16.489Z,101239.28
2023-01-13T22:36:49.080Z,101236.66
2023-01-13T22:39:21.705Z,101230.50
2023-01-13T22:41:54.326Z,101226.97
2023-01-13T22:44:26.994Z,101225.22
2023-01-13T22:47:00.242Z,101229.63
2023-01-13T22:49:32.751Z,101232.25
2023-01-13T22:52:05.839Z,101239.28
2023-01-13T22:54:38.368Z,101230.50
2023-01-13T22:57:11.541Z,101230.50
2023-01-13T22:59:44.133Z,101243.66
2023-01-13T23:02:16.727Z,101241.91
2023-01-13T23:04:49.327Z,101246.25
2023-01-13T23:07:21.997Z,101245.41
2023-01-13T23:09:54.491Z,101250.66
2023-01-13T23:12:27.000Z,101242.75
2023-01-13T23:14:59.595Z,101248.91
2023-01-13T23:17:32.118Z,101247.16
2023-01-13T23:20:05.097Z,101249.78
2023-01-13T23:22:38.632Z,101242.75
2023-01-13T23:25:11.632Z,101238.38
2023-01-13T23:27:44.267Z,101230.47
2023-01-13T23:30:17.586Z,101228.72
2023-01-13T23:32:50.075Z,101224.31
2023-01-13T23:35:22.615Z,101236.59
2023-01-13T23:37:55.167Z,101226.00
2023-01-13T23:40:27.788Z,101227.81
2023-01-13T23:43:00.536Z,101232.22
2023-01-13T23:45:33.099Z,101222.50
2023-01-13T23:48:06.429Z,101231.22
2023-01-13T23:50:39.049Z,101229.47
2023-01-13T23:53:11.607Z,101226.81
2023-01-13T23:55:44.102Z,101225.00
2023-01-13T23:58:16.687Z,101231.16
